sensor_id;sensor_type;location;lat;lon;timestamp;P1;durP1;ratioP1;P2;durP2;ratioP2
13455;SDS011;6800;50.940;6.940;2023-10-19T00:02:58;21.80;;;19.30;;
13455;SDS011;6800;50.940;6.940;2023-10-19T00:06:59;24.27;;;19.63;;
13455;SDS011;6800;50.940;6.940;2023-10-19T00:11:02;37.80;;;26.70;;
13455;SDS011;6800;50.940;6.940;2023-10-19T00:15:10;33.13;;;23.37;;
13455;SDS011;6800;50.940;6.940;2023-10-19T00:19:13;34.83;;;25.00;;
13455;SDS011;6800;50.940;6.940;2023-10-19T00:23:21;21.87;;;18.83;;
13455;SDS011;6800;50.940;6.940;2023-10-19T00:27:36;32.90;;;24.27;;
13455;SDS011;6800;50.940;6.940;2023-10-19T00:31:37;31.20;;;22.47;;
13455;SDS011;6800;50.940;6.940;2023-10-19T00:35:42;38.13;;;24.27;;
13455;SDS011;6800;50.940;6.940;2023-10-19T00:39:48;22.07;;;17.50;;
13455;SDS011;6800;50.940;6.940;2023-10-19T00:43:56;27.40;;;21.03;;
13455;SDS011;6800;50.940;6.940;2023-10-19T00:48:24;40.43;;;27.37;;
13455;SDS011;6800;50.940;6.940;2023-10-19T00:52:27;34.63;;;25.50;;
13455;SDS011;6800;50.940;6.940;2023-10-19T00:56:33;31.20;;;24.80;;
13455;SDS011;6800;50.940;6.940;2023-10-19T01:00:34;24.40;;;20.67;;
13455;SDS011;6800;50.940;6.940;2023-10-19T01:04:44;29.97;;;22.87;;
13455;SDS011;6800;50.940;6.940;2023-10-19T01:08:52;17.57;;;15.83;;
13455;SDS011;6800;50.940;6.940;2023-10-19T01:12:53;18.60;;;16.67;;
13455;SDS011;6800;50.940;6.940;2023-10-19T01:16:55;38.77;;;26.83;;
13455;SDS011;6800;50.940;6.940;2023-10-19T01:21:00;33.90;;;27.03;;
13455;SDS011;6800;50.940;6.940;2023-10-19T01:25:06;34.33;;;26.03;;
13455;SDS011;6800;50.940;6.940;2023-10-19T01:29:11;41.73;;;29.20;;
13455;SDS011;6800;50.940;6.940;2023-10-19T01:33:27;28.90;;;23.40;;
13455;SDS011;6800;50.940;6.940;2023-10-19T01:37:29;29.70;;;22.10;;
13455;SDS011;6800;50.940;6.940;2023-10-19T01:41:30;24.57;;;21.07;;
13455;SDS011;6800;50.940;6.940;2023-10-19T01:45:33;25.47;;;21.70;;
13455;SDS011;6800;50.940;6.940;2023-10-19T01:49:34;31.97;;;24.60;;
13455;SDS011;6800;50.940;6.940;2023-10-19T01:53:36;34.67;;;25.87;;
13455;SDS011;6800;50.940;6.940;2023-10-19T01:57:45;20.90;;;18.70;;
13455;SDS011;6800;50.940;6.940;2023-10-19T02:01:47;57.90;;;38.70;;
13455;SDS011;6800;50.940;6.940;2023-10-19T02:05:57;33.43;;;24.50;;
13455;SDS011;6800;50.940;6.940;2023-10-19T02:10:08;21.27;;;18.70;;
13455;SDS011;6800;50.940;6.940;2023-10-19T02:14:11;22.60;;;20.13;;
13455;SDS011;6800;50.940;6.940;2023-10-19T02:18:16;26.17;;;20.27;;
13455;SDS011;6800;50.940;6.940;2023-10-19T02:22:18;28.87;;;22.07;;
13455;SDS011;6800;50.940;6.940;2023-10-19T02:26:20;21.10;;;18.27;;
13455;SDS011;6800;50.940;6.940;2023-10-19T02:30:24;17.23;;;14.27;;
13455;SDS011;6800;50.940;6.940;2023-10-19T02:34:26;15.47;;;14.07;;
13455;SDS011;6800;50.940;6.940;2023-10-19T02:38:27;17.07;;;14.60;;
13455;SDS011;6800;50.940;6.940;2023-10-19T02:42:29;16.10;;;14.60;;
13455;SDS011;6800;50.940;6.940;2023-10-19T02:46:30;17.03;;;15.43;;
13455;SDS011;6800;50.940;6.940;2023-10-19T02:50:35;16.00;;;14.37;;
13455;SDS011;6800;50.940;6.940;2023-10-19T02:54:37;15.57;;;14.17;;
13455;SDS011;6800;50.940;6.940;2023-10-19T02:58:40;15.33;;;13.77;;
13455;SDS011;6800;50.940;6.940;2023-10-19T03:02:43;14.70;;;13.40;;
13455;SDS011;6800;50.940;6.940;2023-10-19T03:06:45;14.53;;;13.23;;
13455;SDS011;6800;50.940;6.940;2023-10-19T03:10:47;14.90;;;13.50;;
13455;SDS011;6800;50.940;6.940;2023-10-19T03:14:48;15.10;;;13.70;;
13455;SDS011;6800;50.940;6.940;2023-10-19T03:18:50;14.70;;;13.23;;
13455;SDS011;6800;50.940;6.940;2023-10-19T03:22:51;15.03;;;13.57;;
13455;SDS011;6800;50.940;6.940;2023-10-19T03:26:53;14.87;;;13.47;;
13455;SDS011;6800;50.940;6.940;2023-10-19T03:30:55;14.53;;;13.13;;
13455;SDS011;6800;50.940;6.940;2023-10-19T03:34:57;14.00;;;12.70;;
13455;SDS011;6800;50.940;6.940;2023-10-19T03:39:00;13.67;;;12.37;;
13455;SDS011;6800;50.940;6.940;2023-10-19T03:43:12;14.03;;;12.73;;
13455;SDS011;6800;50.940;6.940;2023-10-19T03:47:22;13.80;;;12.50;;
13455;SDS011;6800;50.940;6.940;2023-10-19T03:51:28;13.13;;;11.83;;
13455;SDS011;6800;50.940;6.940;2023-10-19T03:55:40;13.27;;;11.97;;
13455;SDS011;6800;50.940;6.940;2023-10-19T03:59:45;13.50;;;12.07;;
13455;SDS011;6800;50.940;6.940;2023-10-19T04:03:48;13.10;;;11.90;;
13455;SDS011;6800;50.940;6.940;2023-10-19T04:07:50;12.73;;;11.40;;
13455;SDS011;6800;50.940;6.940;2023-10-19T04:11:55;12.20;;;11.13;;
13455;SDS011;6800;50.940;6.940;2023-10-19T04:15:57;13.47;;;12.27;;
13455;SDS011;6800;50.940;6.940;2023-10-19T04:19:58;13.50;;;12.13;;
13455;SDS011;6800;50.940;6.940;2023-10-19T04:24:03;12.80;;;11.60;;
13455;SDS011;6800;50.940;6.940;2023-10-19T04:28:08;12.90;;;11.70;;
13455;SDS011;6800;50.940;6.940;2023-10-19T04:32:10;14.20;;;12.73;;
13455;SDS011;6800;50.940;6.940;2023-10-19T04:36:14;13.13;;;11.83;;
13455;SDS011;6800;50.940;6.940;2023-10-19T04:40:16;13.73;;;11.73;;
13455;SDS011;6800;50.940;6.940;2023-10-19T04:44:17;13.17;;;11.87;;
13455;SDS011;6800;50.940;6.940;2023-10-19T04:48:19;14.00;;;12.63;;
13455;SDS011;6800;50.940;6.940;2023-10-19T04:52:20;13.37;;;11.90;;
13455;SDS011;6800;50.940;6.940;2023-10-19T04:56:24;13.07;;;11.77;;
13455;SDS011;6800;50.940;6.940;2023-10-19T05:00:25;13.10;;;11.70;;
13455;SDS011;6800;50.940;6.940;2023-10-19T05:04:29;13.17;;;11.37;;
13455;SDS011;6800;50.940;6.940;2023-10-19T05:08:31;13.17;;;11.87;;
13455;SDS011;6800;50.940;6.940;2023-10-19T05:12:33;12.70;;;11.60;;
13455;SDS011;6800;50.940;6.940;2023-10-19T05:16:35;11.57;;;10.47;;
13455;SDS011;6800;50.940;6.940;2023-10-19T05:20:36;11.40;;;10.27;;
13455;SDS011;6800;50.940;6.940;2023-10-19T05:24:41;12.77;;;11.20;;
13455;SDS011;6800;50.940;6.940;2023-10-19T05:28:43;11.27;;;10.07;;
13455;SDS011;6800;50.940;6.940;2023-10-19T05:32:44;12.40;;;10.77;;
13455;SDS011;6800;50.940;6.940;2023-10-19T05:36:48;11.93;;;10.93;;
13455;SDS011;6800;50.940;6.940;2023-10-19T05:40:52;11.70;;;10.40;;
13455;SDS011;6800;50.940;6.940;2023-10-19T05:44:56;12.07;;;10.83;;
13455;SDS011;6800;50.940;6.940;2023-10-19T05:48:58;12.00;;;10.67;;
13455;SDS011;6800;50.940;6.940;2023-10-19T05:52:59;13.00;;;10.60;;
13455;SDS011;6800;50.940;6.940;2023-10-19T05:57:01;11.13;;;9.67;;
13455;SDS011;6800;50.940;6.940;2023-10-19T06:01:06;11.67;;;10.57;;
13455;SDS011;6800;50.940;6.940;2023-10-19T06:05:07;11.37;;;10.17;;
13455;SDS011;6800;50.940;6.940;2023-10-19T06:09:09;12.50;;;11.07;;
13455;SDS011;6800;50.940;6.940;2023-10-19T06:13:10;18.93;;;11.77;;
13455;SDS011;6800;50.940;6.940;2023-10-19T06:17:12;12.20;;;10.90;;
13455;SDS011;6800;50.940;6.940;2023-10-19T06:21:20;13.43;;;11.37;;
13455;SDS011;6800;50.940;6.940;2023-10-19T06:25:22;12.60;;;11.30;;
13455;SDS011;6800;50.940;6.940;2023-10-19T06:29:25;14.33;;;11.83;;
13455;SDS011;6800;50.940;6.940;2023-10-19T06:33:29;13.13;;;11.83;;
13455;SDS011;6800;50.940;6.940;2023-10-19T06:37:33;15.80;;;12.27;;
13455;SDS011;6800;50.940;6.940;2023-10-19T06:41:35;16.07;;;11.13;;
13455;SDS011;6800;50.940;6.940;2023-10-19T06:45:36;13.17;;;11.00;;
13455;SDS011;6800;50.940;6.940;2023-10-19T06:49:37;15.80;;;12.17;;
13455;SDS011;6800;50.940;6.940;2023-10-19T06:53:39;20.43;;;12.10;;
13455;SDS011;6800;50.940;6.940;2023-10-19T06:57:41;17.47;;;12.60;;
13455;SDS011;6800;50.940;6.940;2023-10-19T07:01:45;16.33;;;11.80;;
13455;SDS011;6800;50.940;6.940;2023-10-19T07:05:47;16.77;;;12.47;;
13455;SDS011;6800;50.940;6.940;2023-10-19T07:09:50;15.70;;;13.07;;
13455;SDS011;6800;50.940;6.940;2023-10-19T07:13:53;15.03;;;13.50;;
13455;SDS011;6800;50.940;6.940;2023-10-19T07:17:54;16.00;;;12.70;;
13455;SDS011;6800;50.940;6.940;2023-10-19T07:21:57;17.27;;;12.73;;
13455;SDS011;6800;50.940;6.940;2023-10-19T07:25:58;13.90;;;12.23;;
13455;SDS011;6800;50.940;6.940;2023-10-19T07:30:03;16.80;;;12.43;;
13455;SDS011;6800;50.940;6.940;2023-10-19T07:34:10;14.33;;;12.83;;
13455;SDS011;6800;50.940;6.940;2023-10-19T07:38:16;16.83;;;12.57;;
13455;SDS011;6800;50.940;6.940;2023-10-19T07:42:26;14.03;;;11.50;;
13455;SDS011;6800;50.940;6.940;2023-10-19T07:46:28;17.60;;;12.77;;
13455;SDS011;6800;50.940;6.940;2023-10-19T07:50:30;13.43;;;11.07;;
13455;SDS011;6800;50.940;6.940;2023-10-19T07:54:34;12.60;;;11.30;;
13455;SDS011;6800;50.940;6.940;2023-10-19T07:58:36;13.23;;;11.83;;
13455;SDS011;6800;50.940;6.940;2023-10-19T08:02:37;18.87;;;11.53;;
13455;SDS011;6800;50.940;6.940;2023-10-19T08:06:39;15.33;;;12.27;;
13455;SDS011;6800;50.940;6.940;2023-10-19T08:10:40;15.50;;;11.63;;
13455;SDS011;6800;50.940;6.940;2023-10-19T08:14:41;14.93;;;11.13;;
13455;SDS011;6800;50.940;6.940;2023-10-19T08:18:43;16.07;;;10.93;;
13455;SDS011;6800;50.940;6.940;2023-10-19T08:22:45;17.53;;;9.53;;
13455;SDS011;6800;50.940;6.940;2023-10-19T08:26:49;15.03;;;9.80;;
13455;SDS011;6800;50.940;6.940;2023-10-19T08:30:52;24.67;;;11.40;;
13455;SDS011;6800;50.940;6.940;2023-10-19T08:35:04;17.17;;;10.60;;
13455;SDS011;6800;50.940;6.940;2023-10-19T08:39:07;21.35;;;9.95;;
13455;SDS011;6800;50.940;6.940;2023-10-19T08:43:09;13.70;;;7.70;;
13455;SDS011;6800;50.940;6.940;2023-10-19T08:47:14;16.52;;;8.23;;
13455;SDS011;6800;50.940;6.940;2023-10-19T08:51:17;8.65;;;5.28;;
13455;SDS011;6800;50.940;6.940;2023-10-19T08:55:19;8.50;;;5.30;;
13455;SDS011;6800;50.940;6.940;2023-10-19T08:59:37;10.38;;;5.18;;
13455;SDS011;6800;50.940;6.940;2023-10-19T09:03:39;15.10;;;10.85;;
13455;SDS011;6800;50.940;6.940;2023-10-19T09:07:42;6.20;;;5.50;;
13455;SDS011;6800;50.940;6.940;2023-10-19T09:11:43;6.63;;;6.03;;
13455;SDS011;6800;50.940;6.940;2023-10-19T09:15:45;6.93;;;6.18;;
13455;SDS011;6800;50.940;6.940;2023-10-19T09:19:47;11.13;;;6.20;;
13455;SDS011;6800;50.940;6.940;2023-10-19T09:23:49;10.32;;;5.22;;
13455;SDS011;6800;50.940;6.940;2023-10-19T09:27:52;8.98;;;5.63;;
13455;SDS011;6800;50.940;6.940;2023-10-19T09:31:54;8.65;;;4.40;;
13455;SDS011;6800;50.940;6.940;2023-10-19T09:35:59;12.38;;;5.18;;
13455;SDS011;6800;50.940;6.940;2023-10-19T09:40:06;5.93;;;4.00;;
13455;SDS011;6800;50.940;6.940;2023-10-19T09:44:13;6.63;;;3.33;;
13455;SDS011;6800;50.940;6.940;2023-10-19T09:48:17;9.70;;;2.90;;
13455;SDS011;6800;50.940;6.940;2023-10-19T09:52:19;7.55;;;4.97;;
13455;SDS011;6800;50.940;6.940;2023-10-19T09:56:24;10.05;;;5.85;;
13455;SDS011;6800;50.940;6.940;2023-10-19T10:00:31;11.18;;;5.82;;
13455;SDS011;6800;50.940;6.940;2023-10-19T10:04:33;10.85;;;5.72;;
13455;SDS011;6800;50.940;6.940;2023-10-19T10:08:39;9.65;;;3.13;;
13455;SDS011;6800;50.940;6.940;2023-10-19T10:12:42;9.90;;;4.40;;
13455;SDS011;6800;50.940;6.940;2023-10-19T10:16:43;8.65;;;3.70;;
13455;SDS011;6800;50.940;6.940;2023-10-19T10:20:44;9.35;;;4.30;;
13455;SDS011;6800;50.940;6.940;2023-10-19T10:24:46;9.52;;;4.25;;
13455;SDS011;6800;50.940;6.940;2023-10-19T10:28:48;6.93;;;3.97;;
13455;SDS011;6800;50.940;6.940;2023-10-19T10:33:10;10.38;;;3.92;;
13455;SDS011;6800;50.940;6.940;2023-10-19T10:37:54;24.25;;;4.63;;
13455;SDS011;6800;50.940;6.940;2023-10-19T10:41:59;8.95;;;2.22;;
13455;SDS011;6800;50.940;6.940;2023-10-19T10:46:19;5.60;;;2.20;;
13455;SDS011;6800;50.940;6.940;2023-10-19T10:50:31;6.45;;;1.95;;
13455;SDS011;6800;50.940;6.940;2023-10-19T10:54:33;6.60;;;2.80;;
13455;SDS011;6800;50.940;6.940;2023-10-19T10:58:34;8.48;;;2.85;;
13455;SDS011;6800;50.940;6.940;2023-10-19T11:02:36;4.97;;;2.50;;
13455;SDS011;6800;50.940;6.940;2023-10-19T11:06:47;6.43;;;2.22;;
13455;SDS011;6800;50.940;6.940;2023-10-19T11:10:52;8.57;;;3.72;;
13455;SDS011;6800;50.940;6.940;2023-10-19T11:14:55;8.65;;;3.97;;
13455;SDS011;6800;50.940;6.940;2023-10-19T11:19:01;10.10;;;4.05;;
13455;SDS011;6800;50.940;6.940;2023-10-19T11:23:02;14.48;;;4.40;;
13455;SDS011;6800;50.940;6.940;2023-10-19T11:27:04;7.05;;;3.47;;
13455;SDS011;6800;50.940;6.940;2023-10-19T11:31:12;9.35;;;3.17;;
13455;SDS011;6800;50.940;6.940;2023-10-19T11:35:24;7.40;;;2.85;;
13455;SDS011;6800;50.940;6.940;2023-10-19T11:39:26;8.27;;;2.40;;
13455;SDS011;6800;50.940;6.940;2023-10-19T11:43:27;9.85;;;4.70;;
13455;SDS011;6800;50.940;6.940;2023-10-19T11:47:29;16.58;;;5.53;;
13455;SDS011;6800;50.940;6.940;2023-10-19T11:51:30;24.55;;;6.25;;
13455;SDS011;6800;50.940;6.940;2023-10-19T11:55:32;19.52;;;7.03;;
13455;SDS011;6800;50.940;6.940;2023-10-19T11:59:33;6.45;;;2.70;;
13455;SDS011;6800;50.940;6.940;2023-10-19T12:03:35;7.53;;;3.30;;
13455;SDS011;6800;50.940;6.940;2023-10-19T12:07:38;10.07;;;3.72;;
13455;SDS011;6800;50.940;6.940;2023-10-19T12:11:41;20.98;;;4.95;;
13455;SDS011;6800;50.940;6.940;2023-10-19T12:15:51;13.23;;;4.00;;
13455;SDS011;6800;50.940;6.940;2023-10-19T12:20:02;9.07;;;4.43;;
13455;SDS011;6800;50.940;6.940;2023-10-19T12:24:04;9.85;;;4.22;;
13455;SDS011;6800;50.940;6.940;2023-10-19T12:28:07;8.35;;;3.70;;
13455;SDS011;6800;50.940;6.940;2023-10-19T12:32:14;8.32;;;3.88;;
13455;SDS011;6800;50.940;6.940;2023-10-19T12:36:16;9.55;;;4.30;;
13455;SDS011;6800;50.940;6.940;2023-10-19T12:40:32;10.70;;;4.20;;
13455;SDS011;6800;50.940;6.940;2023-10-19T12:44:36;9.23;;;3.92;;
13455;SDS011;6800;50.940;6.940;2023-10-19T12:48:41;12.43;;;4.85;;
13455;SDS011;6800;50.940;6.940;2023-10-19T12:52:43;9.43;;;3.53;;
13455;SDS011;6800;50.940;6.940;2023-10-19T12:56:53;8.02;;;3.50;;
13455;SDS011;6800;50.940;6.940;2023-10-19T13:00:55;9.35;;;3.78;;
13455;SDS011;6800;50.940;6.940;2023-10-19T13:04:57;6.00;;;2.30;;
13455;SDS011;6800;50.940;6.940;2023-10-19T13:09:00;7.72;;;3.15;;
13455;SDS011;6800;50.940;6.940;2023-10-19T13:13:02;7.68;;;2.88;;
13455;SDS011;6800;50.940;6.940;2023-10-19T13:17:06;13.65;;;4.70;;
13455;SDS011;6800;50.940;6.940;2023-10-19T13:21:07;5.93;;;3.30;;
13455;SDS011;6800;50.940;6.940;2023-10-19T13:25:21;12.27;;;3.33;;
13455;SDS011;6800;50.940;6.940;2023-10-19T13:29:40;10.75;;;3.53;;
13455;SDS011;6800;50.940;6.940;2023-10-19T13:33:43;10.32;;;3.80;;
13455;SDS011;6800;50.940;6.940;2023-10-19T13:37:45;11.90;;;4.20;;
13455;SDS011;6800;50.940;6.940;2023-10-19T13:41:47;21.88;;;5.57;;
13455;SDS011;6800;50.940;6.940;2023-10-19T13:45:49;29.58;;;5.93;;
13455;SDS011;6800;50.940;6.940;2023-10-19T13:49:54;29.13;;;6.60;;
13455;SDS011;6800;50.940;6.940;2023-10-19T13:53:55;15.30;;;5.57;;
13455;SDS011;6800;50.940;6.940;2023-10-19T13:57:57;24.92;;;6.57;;
13455;SDS011;6800;50.940;6.940;2023-10-19T14:01:59;22.95;;;6.10;;
13455;SDS011;6800;50.940;6.940;2023-10-19T14:06:00;13.35;;;5.88;;
13455;SDS011;6800;50.940;6.940;2023-10-19T14:10:02;16.55;;;6.07;;
13455;SDS011;6800;50.940;6.940;2023-10-19T14:14:06;17.35;;;6.03;;
13455;SDS011;6800;50.940;6.940;2023-10-19T14:18:08;16.75;;;5.32;;
13455;SDS011;6800;50.940;6.940;2023-10-19T14:22:10;11.02;;;5.28;;
13455;SDS011;6800;50.940;6.940;2023-10-19T14:26:11;16.23;;;5.80;;
13455;SDS011;6800;50.940;6.940;2023-10-19T14:30:14;15.25;;;6.25;;
13455;SDS011;6800;50.940;6.940;2023-10-19T14:34:17;15.77;;;7.93;;
13455;SDS011;6800;50.940;6.940;2023-10-19T14:38:19;24.02;;;7.55;;
13455;SDS011;6800;50.940;6.940;2023-10-19T14:42:21;21.40;;;7.67;;
13455;SDS011;6800;50.940;6.940;2023-10-19T14:46:22;15.95;;;7.07;;
13455;SDS011;6800;50.940;6.940;2023-10-19T14:50:25;16.67;;;7.10;;
13455;SDS011;6800;50.940;6.940;2023-10-19T14:54:28;12.88;;;6.03;;
13455;SDS011;6800;50.940;6.940;2023-10-19T14:58:30;22.08;;;7.07;;
13455;SDS011;6800;50.940;6.940;2023-10-19T15:02:32;53.83;;;10.20;;
13455;SDS011;6800;50.940;6.940;2023-10-19T15:06:34;27.80;;;8.48;;
13455;SDS011;6800;50.940;6.940;2023-10-19T15:10:40;13.57;;;6.95;;
13455;SDS011;6800;50.940;6.940;2023-10-19T15:14:43;11.93;;;6.13;;
13455;SDS011;6800;50.940;6.940;2023-10-19T15:18:44;19.98;;;7.05;;
13455;SDS011;6800;50.940;6.940;2023-10-19T15:22:46;12.48;;;6.35;;
13455;SDS011;6800;50.940;6.940;2023-10-19T15:26:48;13.05;;;7.28;;
13455;SDS011;6800;50.940;6.940;2023-10-19T15:30:50;12.02;;;7.22;;
13455;SDS011;6800;50.940;6.940;2023-10-19T15:34:54;13.60;;;7.55;;
13455;SDS011;6800;50.940;6.940;2023-10-19T15:38:55;13.65;;;8.55;;
13455;SDS011;6800;50.940;6.940;2023-10-19T15:42:57;9.80;;;7.30;;
13455;SDS011;6800;50.940;6.940;2023-10-19T15:47:01;13.10;;;8.55;;
13455;SDS011;6800;50.940;6.940;2023-10-19T15:51:07;11.55;;;7.20;;
13455;SDS011;6800;50.940;6.940;2023-10-19T15:55:10;8.82;;;6.93;;
13455;SDS011;6800;50.940;6.940;2023-10-19T15:59:14;10.50;;;6.82;;
13455;SDS011;6800;50.940;6.940;2023-10-19T16:03:16;8.35;;;6.15;;
13455;SDS011;6800;50.940;6.940;2023-10-19T16:07:17;8.98;;;6.97;;
13455;SDS011;6800;50.940;6.940;2023-10-19T16:11:19;11.38;;;7.20;;
13455;SDS011;6800;50.940;6.940;2023-10-19T16:15:21;12.57;;;8.43;;
13455;SDS011;6800;50.940;6.940;2023-10-19T16:19:23;14.63;;;8.45;;
13455;SDS011;6800;50.940;6.940;2023-10-19T16:23:25;12.23;;;8.55;;
13455;SDS011;6800;50.940;6.940;2023-10-19T16:27:27;13.05;;;7.88;;
13455;SDS011;6800;50.940;6.940;2023-10-19T16:31:28;10.05;;;8.55;;
13455;SDS011;6800;50.940;6.940;2023-10-19T16:35:30;12.55;;;8.75;;
13455;SDS011;6800;50.940;6.940;2023-10-19T16:39:33;11.02;;;8.30;;
13455;SDS011;6800;50.940;6.940;2023-10-19T16:43:34;9.35;;;8.05;;
13455;SDS011;6800;50.940;6.940;2023-10-19T16:47:39;9.30;;;7.82;;
13455;SDS011;6800;50.940;6.940;2023-10-19T16:51:42;10.40;;;9.27;;
13455;SDS011;6800;50.940;6.940;2023-10-19T16:55:44;11.05;;;8.68;;
13455;SDS011;6800;50.940;6.940;2023-10-19T16:59:46;9.35;;;8.35;;
13455;SDS011;6800;50.940;6.940;2023-10-19T17:03:47;9.55;;;8.60;;
13455;SDS011;6800;50.940;6.940;2023-10-19T17:07:50;9.27;;;8.38;;
13455;SDS011;6800;50.940;6.940;2023-10-19T17:11:52;9.00;;;8.20;;
13455;SDS011;6800;50.940;6.940;2023-10-19T17:15:54;13.87;;;9.23;;
13455;SDS011;6800;50.940;6.940;2023-10-19T17:19:55;14.30;;;10.60;;
13455;SDS011;6800;50.940;6.940;2023-10-19T17:23:57;12.88;;;9.63;;
13455;SDS011;6800;50.940;6.940;2023-10-19T17:27:58;10.90;;;9.82;;
13455;SDS011;6800;50.940;6.940;2023-10-19T17:32:00;12.53;;;9.90;;
13455;SDS011;6800;50.940;6.940;2023-10-19T17:36:02;9.90;;;8.90;;
13455;SDS011;6800;50.940;6.940;2023-10-19T17:40:03;12.47;;;9.63;;
13455;SDS011;6800;50.940;6.940;2023-10-19T17:44:05;12.05;;;9.52;;
13455;SDS011;6800;50.940;6.940;2023-10-19T17:48:07;11.70;;;10.07;;
13455;SDS011;6800;50.940;6.940;2023-10-19T17:52:09;11.07;;;9.73;;
13455;SDS011;6800;50.940;6.940;2023-10-19T17:56:10;11.07;;;9.97;;
13455;SDS011;6800;50.940;6.940;2023-10-19T18:00:12;10.93;;;9.87;;
13455;SDS011;6800;50.940;6.940;2023-10-19T18:04:14;11.83;;;10.63;;
13455;SDS011;6800;50.940;6.940;2023-10-19T18:08:16;11.47;;;9.80;;
13455;SDS011;6800;50.940;6.940;2023-10-19T18:12:17;11.90;;;10.00;;
13455;SDS011;6800;50.940;6.940;2023-10-19T18:16:20;11.17;;;10.03;;
13455;SDS011;6800;50.940;6.940;2023-10-19T18:20:21;15.20;;;11.83;;
13455;SDS011;6800;50.940;6.940;2023-10-19T18:24:23;11.43;;;10.23;;
13455;SDS011;6800;50.940;6.940;2023-10-19T18:28:26;11.70;;;10.17;;
13455;SDS011;6800;50.940;6.940;2023-10-19T18:32:27;11.47;;;9.77;;
13455;SDS011;6800;50.940;6.940;2023-10-19T18:36:29;11.30;;;10.30;;
13455;SDS011;6800;50.940;6.940;2023-10-19T18:40:34;11.80;;;10.67;;
13455;SDS011;6800;50.940;6.940;2023-10-19T18:44:37;10.35;;;9.30;;
13455;SDS011;6800;50.940;6.940;2023-10-19T18:48:39;11.30;;;10.17;;
13455;SDS011;6800;50.940;6.940;2023-10-19T18:52:41;10.40;;;9.33;;
13455;SDS011;6800;50.940;6.940;2023-10-19T18:56:43;10.63;;;9.27;;
13455;SDS011;6800;50.940;6.940;2023-10-19T19:00:49;10.70;;;9.57;;
13455;SDS011;6800;50.940;6.940;2023-10-19T19:04:52;10.63;;;9.00;;
13455;SDS011;6800;50.940;6.940;2023-10-19T19:08:53;11.20;;;10.00;;
13455;SDS011;6800;50.940;6.940;2023-10-19T19:12:54;9.85;;;8.85;;
13455;SDS011;6800;50.940;6.940;2023-10-19T19:16:56;10.23;;;9.33;;
13455;SDS011;6800;50.940;6.940;2023-10-19T19:21:00;12.07;;;9.50;;
13455;SDS011;6800;50.940;6.940;2023-10-19T19:25:10;10.00;;;9.00;;
13455;SDS011;6800;50.940;6.940;2023-10-19T19:29:11;11.70;;;9.30;;
13455;SDS011;6800;50.940;6.940;2023-10-19T19:33:13;11.30;;;10.07;;
13455;SDS011;6800;50.940;6.940;2023-10-19T19:37:16;10.77;;;9.40;;
13455;SDS011;6800;50.940;6.940;2023-10-19T19:41:18;11.80;;;10.57;;
13455;SDS011;6800;50.940;6.940;2023-10-19T19:45:21;12.33;;;10.87;;
13455;SDS011;6800;50.940;6.940;2023-10-19T19:49:23;11.60;;;10.50;;
13455;SDS011;6800;50.940;6.940;2023-10-19T19:53:25;10.80;;;9.73;;
13455;SDS011;6800;50.940;6.940;2023-10-19T19:57:27;11.33;;;10.13;;
13455;SDS011;6800;50.940;6.940;2023-10-19T20:01:28;11.57;;;10.17;;
13455;SDS011;6800;50.940;6.940;2023-10-19T20:05:30;11.30;;;10.30;;
13455;SDS011;6800;50.940;6.940;2023-10-19T20:09:32;12.23;;;11.07;;
13455;SDS011;6800;50.940;6.940;2023-10-19T20:13:33;12.33;;;11.13;;
13455;SDS011;6800;50.940;6.940;2023-10-19T20:17:37;11.73;;;10.53;;
13455;SDS011;6800;50.940;6.940;2023-10-19T20:21:39;12.67;;;11.40;;
13455;SDS011;6800;50.940;6.940;2023-10-19T20:25:40;14.20;;;12.20;;
13455;SDS011;6800;50.940;6.940;2023-10-19T20:29:42;12.13;;;10.93;;
13455;SDS011;6800;50.940;6.940;2023-10-19T20:33:44;12.47;;;11.17;;
13455;SDS011;6800;50.940;6.940;2023-10-19T20:37:46;14.33;;;12.83;;
13455;SDS011;6800;50.940;6.940;2023-10-19T20:41:47;11.88;;;10.73;;
13455;SDS011;6800;50.940;6.940;2023-10-19T20:45:52;13.47;;;10.90;;
13455;SDS011;6800;50.940;6.940;2023-10-19T20:49:54;12.93;;;11.67;;
13455;SDS011;6800;50.940;6.940;2023-10-19T20:53:55;13.67;;;12.37;;
13455;SDS011;6800;50.940;6.940;2023-10-19T20:57:57;12.97;;;11.53;;
13455;SDS011;6800;50.940;6.940;2023-10-19T21:01:58;12.97;;;11.73;;
13455;SDS011;6800;50.940;6.940;2023-10-19T21:06:08;13.87;;;12.47;;
13455;SDS011;6800;50.940;6.940;2023-10-19T21:10:11;15.07;;;12.82;;
13455;SDS011;6800;50.940;6.940;2023-10-19T21:14:12;13.27;;;11.87;;
13455;SDS011;6800;50.940;6.940;2023-10-19T21:18:14;15.37;;;13.97;;
13455;SDS011;6800;50.940;6.940;2023-10-19T21:22:15;13.80;;;12.50;;
13455;SDS011;6800;50.940;6.940;2023-10-19T21:26:17;14.83;;;13.50;;
13455;SDS011;6800;50.940;6.940;2023-10-19T21:30:18;15.02;;;13.38;;
13455;SDS011;6800;50.940;6.940;2023-10-19T21:34:20;14.97;;;13.50;;
13455;SDS011;6800;50.940;6.940;2023-10-19T21:38:21;13.63;;;12.33;;
13455;SDS011;6800;50.940;6.940;2023-10-19T21:42:22;12.90;;;11.70;;
13455;SDS011;6800;50.940;6.940;2023-10-19T21:46:24;16.40;;;13.47;;
13455;SDS011;6800;50.940;6.940;2023-10-19T21:50:26;13.17;;;11.97;;
13455;SDS011;6800;50.940;6.940;2023-10-19T21:54:29;15.77;;;13.17;;
13455;SDS011;6800;50.940;6.940;2023-10-19T21:58:31;13.03;;;11.73;;
13455;SDS011;6800;50.940;6.940;2023-10-19T22:02:33;13.37;;;12.17;;
13455;SDS011;6800;50.940;6.940;2023-10-19T22:06:34;12.33;;;11.13;;
13455;SDS011;6800;50.940;6.940;2023-10-19T22:10:36;12.33;;;11.17;;
13455;SDS011;6800;50.940;6.940;2023-10-19T22:14:37;13.30;;;12.00;;
13455;SDS011;6800;50.940;6.940;2023-10-19T22:18:40;13.13;;;11.93;;
13455;SDS011;6800;50.940;6.940;2023-10-19T22:22:42;12.02;;;11.00;;
13455;SDS011;6800;50.940;6.940;2023-10-19T22:26:45;13.23;;;11.37;;
13455;SDS011;6800;50.940;6.940;2023-10-19T22:30:47;12.50;;;11.20;;
13455;SDS011;6800;50.940;6.940;2023-10-19T22:34:48;12.10;;;10.90;;
13455;SDS011;6800;50.940;6.940;2023-10-19T22:38:49;12.53;;;11.37;;
13455;SDS011;6800;50.940;6.940;2023-10-19T22:42:51;12.17;;;10.97;;
13455;SDS011;6800;50.940;6.940;2023-10-19T22:46:54;11.87;;;10.77;;
13455;SDS011;6800;50.940;6.940;2023-10-19T22:50:56;13.13;;;11.73;;
13455;SDS011;6800;50.940;6.940;2023-10-19T22:54:58;12.07;;;10.87;;
13455;SDS011;6800;50.940;6.940;2023-10-19T22:58:59;11.50;;;10.40;;
13455;SDS011;6800;50.940;6.940;2023-10-19T23:03:01;14.03;;;11.37;;
13455;SDS011;6800;50.940;6.940;2023-10-19T23:07:02;11.30;;;10.30;;
13455;SDS011;6800;50.940;6.940;2023-10-19T23:11:06;11.37;;;10.27;;
13455;SDS011;6800;50.940;6.940;2023-10-19T23:15:10;11.23;;;10.17;;
13455;SDS011;6800;50.940;6.940;2023-10-19T23:19:17;11.67;;;10.57;;
13455;SDS011;6800;50.940;6.940;2023-10-19T23:23:19;11.37;;;10.40;;
13455;SDS011;6800;50.940;6.940;2023-10-19T23:27:23;10.82;;;9.82;;
13455;SDS011;6800;50.940;6.940;2023-10-19T23:31:26;11.53;;;10.43;;
13455;SDS011;6800;50.940;6.940;2023-10-19T23:35:28;11.33;;;10.30;;
13455;SDS011;6800;50.940;6.940;2023-10-19T23:39:30;10.95;;;10.05;;
13455;SDS011;6800;50.940;6.940;2023-10-19T23:43:36;10.97;;;10.07;;
13455;SDS011;6800;50.940;6.940;2023-10-19T23:47:37;11.57;;;10.57;;
13455;SDS011;6800;50.940;6.940;2023-10-19T23:51:39;11.80;;;10.60;;
13455;SDS011;6800;50.940;6.940;2023-10-19T23:55:40;10.83;;;9.83;;
13455;SDS011;6800;50.940;6.940;2023-10-19T23:59:42;11.63;;;10.47;;
